createdAt,value
2022-09-26T00:00:13.859Z,101117.00
2022-09-26T00:05:19.096Z,101119.25
2022-09-26T00:10:22.753Z,101124.66
2022-09-26T00:15:27.139Z,101119.91
2022-09-26T00:20:32.316Z,101112.44
2022-09-26T00:25:35.890Z,101110.06
2022-09-26T00:30:42.595Z,101100.94
2022-09-26T00:35:52.938Z,101108.94
2022-09-26T00:40:56.552Z,101102.81
2022-09-26T00:46:05.723Z,101109.97
2022-09-26T00:51:11.536Z,101104.47
2022-09-26T00:56:19.544Z,101101.19
2022-09-26T01:01:23.511Z,101099.13
2022-09-26T01:06:28.877Z,101095.06
2022-09-26T01:11:32.638Z,101093.22
2022-09-26T01:16:37.685Z,101092.28
2022-09-26T01:22:13.573Z,101093.22
2022-09-26T01:27:55.050Z,101104.00
2022-09-26T01:33:27.463Z,101116.31
2022-09-26T01:38:44.789Z,101107.59
2022-09-26T01:43:57.927Z,101105.63
2022-09-26T01:49:10.745Z,101114.91
2022-09-26T01:54:18.606Z,101119.34
2022-09-26T01:59:27.703Z,101115.50
2022-09-26T02:04:38.203Z,101120.97
2022-09-26T02:09:45.911Z,101125.50
2022-09-26T02:14:54.414Z,101129.97
2022-09-26T02:20:01.585Z,101131.00
2022-09-26T02:25:06.229Z,101131.16
2022-09-26T02:30:10.875Z,101133.31
2022-09-26T02:35:16.742Z,101139.03
2022-09-26T02:40:22.778Z,101134.97
2022-09-26T02:45:31.385Z,101140.94
2022-09-26T02:50:59.630Z,101136.03
2022-09-26T02:56:12.127Z,101147.66
2022-09-26T03:01:22.203Z,101156.56
2022-09-26T03:06:33.692Z,101155.38
2022-09-26T03:11:38.180Z,101166.13
2022-09-26T03:16:46.174Z,101163.69
2022-09-26T03:21:51.483Z,101173.13
2022-09-26T03:26:56.705Z,101169.78
2022-09-26T03:32:00.473Z,101179.44
2022-09-26T03:37:05.921Z,101192.91
2022-09-26T03:42:09.492Z,101194.50
2022-09-26T03:47:13.634Z,101189.47
2022-09-26T03:52:18.880Z,101195.34
2022-09-26T03:57:22.594Z,101202.19
2022-09-26T04:02:26.208Z,101214.19
2022-09-26T04:07:31.443Z,101218.00
2022-09-26T04:12:34.968Z,101222.19
2022-09-26T04:17:38.500Z,101221.66
2022-09-26T04:22:43.728Z,101225.75
2022-09-26T04:27:47.281Z,101225.13
2022-09-26T04:32:50.801Z,101226.59
2022-09-26T04:37:55.953Z,101226.59
2022-09-26T04:42:59.569Z,101229.63
2022-09-26T04:48:03.387Z,101227.72
2022-09-26T04:53:08.588Z,101228.41
2022-09-26T04:58:12.183Z,101226.13
2022-09-26T05:03:16.194Z,101224.34
2022-09-26T05:08:21.356Z,101231.94
2022-09-26T05:13:26.012Z,101232.41
2022-09-26T05:18:29.995Z,101234.63
2022-09-26T05:23:38.610Z,101231.69
2022-09-26T05:28:44.460Z,101238.91
2022-09-26T05:33:48.067Z,101232.28
2022-09-26T05:38:53.653Z,101239.56
2022-09-26T05:43:57.303Z,101228.13
2022-09-26T05:49:00.834Z,101231.03
2022-09-26T05:54:06.059Z,101224.34
2022-09-26T05:59:09.896Z,101230.53
2022-09-26T06:04:13.642Z,101223.69
2022-09-26T06:09:18.825Z,101228.47
2022-09-26T06:14:22.379Z,101230.91
2022-09-26T06:19:25.957Z,101224.25
2022-09-26T06:24:31.207Z,101226.22
2022-09-26T06:29:34.785Z,101223.13
2022-09-26T06:34:38.328Z,101235.78
2022-09-26T06:39:43.474Z,101228.88
2022-09-26T06:44:47.021Z,101228.97
2022-09-26T06:49:50.570Z,101231.91
2022-09-26T06:54:55.756Z,101228.84
2022-09-26T06:59:59.275Z,101224.63
2022-09-26T07:05:03.266Z,101229.88
2022-09-26T07:10:09.542Z,101227.59
2022-09-26T07:15:14.122Z,101223.41
2022-09-26T07:20:19.870Z,101223.56
2022-09-26T07:25:25.042Z,101215.91
2022-09-26T07:30:28.971Z,101223.88
2022-09-26T07:35:33.669Z,101225.03
2022-09-26T07:40:39.856Z,101229.59
2022-09-26T07:45:43.414Z,101222.78
2022-09-26T07:50:47.727Z,101216.88
2022-09-26T07:55:52.970Z,101217.13
2022-09-26T08:00:56.521Z,101212.78
2022-09-26T08:06:02.200Z,101212.03
2022-09-26T08:11:14.343Z,101205.13
2022-09-26T08:16:19.002Z,101206.22
2022-09-26T08:21:23.411Z,101206.63
2022-09-26T08:26:29.596Z,101209.44
2022-09-26T08:31:33.267Z,101206.78
2022-09-26T08:36:36.866Z,101209.47
2022-09-26T08:41:59.542Z,101211.44
2022-09-26T08:47:05.475Z,101208.91
2022-09-26T08:52:14.980Z,101209.13
2022-09-26T08:57:30.505Z,101213.59
2022-09-26T09:02:39.690Z,101217.09
2022-09-26T09:07:43.349Z,101219.00
2022-09-26T09:12:59.229Z,101220.03
2022-09-26T09:18:16.094Z,101215.59
2022-09-26T09:23:47.124Z,101219.25
2022-09-26T09:29:19.154Z,101208.16
2022-09-26T09:34:27.355Z,101208.34
2022-09-26T09:39:34.662Z,101201.31
2022-09-26T09:44:47.589Z,101204.84
2022-09-26T09:49:52.395Z,101206.84
2022-09-26T09:55:11.966Z,101203.56
2022-09-26T10:00:19.839Z,101211.56
2022-09-26T10:05:36.234Z,101197.53
2022-09-26T10:10:44.485Z,101189.75
2022-09-26T10:15:56.418Z,101196.78
2022-09-26T10:21:02.338Z,101199.53
2022-09-26T10:26:08.874Z,101190.00
2022-09-26T10:31:24.416Z,101187.41
2022-09-26T10:36:32.700Z,101183.19
2022-09-26T10:41:41.248Z,101178.88
2022-09-26T10:46:46.790Z,101190.28
2022-09-26T10:51:54.704Z,101186.13
2022-09-26T10:56:58.318Z,101183.53
2022-09-26T11:02:05.153Z,101192.28
2022-09-26T11:07:12.685Z,101195.84
2022-09-26T11:12:24.218Z,101190.03
2022-09-26T11:17:45.576Z,101195.13
2022-09-26T11:22:56.968Z,101191.66
2022-09-26T11:28:05.244Z,101190.84
2022-09-26T11:33:14.298Z,101186.34
2022-09-26T11:38:36.399Z,101192.19
2022-09-26T11:43:52.747Z,101176.09
2022-09-26T11:49:06.560Z,101181.44
2022-09-26T11:54:29.803Z,101180.28
2022-09-26T11:59:58.211Z,101189.06
2022-09-26T12:05:26.759Z,101184.28
2022-09-26T12:10:37.947Z,101178.84
2022-09-26T12:15:49.673Z,101184.34
2022-09-26T12:21:06.790Z,101192.06
2022-09-26T12:26:19.302Z,101196.09
2022-09-26T12:31:33.023Z,101199.66
2022-09-26T12:36:51.273Z,101200.22
2022-09-26T12:42:10.023Z,101193.19
2022-09-26T12:47:40.318Z,101192.19
2022-09-26T12:53:15.070Z,101197.16
2022-09-26T12:58:33.507Z,101196.88
2022-09-26T13:04:07.740Z,101200.09
2022-09-26T13:09:28.334Z,101206.91
2022-09-26T13:14:45.168Z,101198.31
2022-09-26T13:19:55.238Z,101202.69
2022-09-26T13:25:07.169Z,101202.00
2022-09-26T13:30:18.732Z,101204.56
2022-09-26T13:35:24.613Z,101212.31
2022-09-26T13:40:41.500Z,101199.78
2022-09-26T13:45:54.573Z,101208.66
2022-09-26T13:51:06.615Z,101226.22
2022-09-26T13:56:37.242Z,101226.31
2022-09-26T14:02:01.479Z,101230.13
2022-09-26T14:07:15.545Z,101232.31
2022-09-26T14:12:34.152Z,101239.25
2022-09-26T14:18:24.582Z,101231.50
2022-09-26T14:23:43.278Z,101239.97
2022-09-26T14:28:56.067Z,101238.38
2022-09-26T14:34:20.392Z,101245.16
2022-09-26T14:39:36.911Z,101251.06
2022-09-26T14:44:51.283Z,101246.41
2022-09-26T14:50:05.623Z,101250.28
2022-09-26T14:55:09.459Z,101254.41
2022-09-26T15:00:37.550Z,101261.75
2022-09-26T15:05:42.184Z,101256.03
2022-09-26T15:10:47.766Z,101261.81
2022-09-26T15:15:58.600Z,101261.06
2022-09-26T15:21:11.187Z,101269.59
2022-09-26T15:26:17.571Z,101274.72
2022-09-26T15:31:37.556Z,101272.47
2022-09-26T15:36:42.904Z,101272.28
2022-09-26T15:41:46.564Z,101272.38
2022-09-26T15:46:52.318Z,101273.34
2022-09-26T15:51:57.462Z,101280.59
2022-09-26T15:57:04.120Z,101287.56
2022-09-26T16:02:22.792Z,101290.25
2022-09-26T16:07:29.224Z,101295.28
2022-09-26T16:12:33.139Z,101289.03
2022-09-26T16:17:40.321Z,101292.94
2022-09-26T16:22:44.907Z,101287.88
2022-09-26T16:27:49.674Z,101284.28
2022-09-26T16:32:56.788Z,101284.84
2022-09-26T16:38:01.908Z,101277.63
2022-09-26T16:43:06.634Z,101288.78
2022-09-26T16:48:37.320Z,101285.09
2022-09-26T16:53:43.265Z,101283.59
2022-09-26T16:58:51.370Z,101284.44
2022-09-26T17:03:56.965Z,101289.09
2022-09-26T17:09:08.342Z,101283.53
2022-09-26T17:14:14.856Z,101274.66
2022-09-26T17:19:20.055Z,101284.38
2022-09-26T17:24:25.619Z,101289.94
2022-09-26T17:29:32.830Z,101285.97
2022-09-26T17:34:38.368Z,101288.06
2022-09-26T17:39:41.893Z,101276.75
2022-09-26T17:44:45.447Z,101288.69
2022-09-26T17:49:53.395Z,101284.25
2022-09-26T17:54:58.790Z,101293.69
2022-09-26T18:00:02.016Z,101287.19
2022-09-26T18:05:18.006Z,101284.41
2022-09-26T18:10:24.212Z,101275.59
2022-09-26T18:15:28.830Z,101274.41
2022-09-26T18:20:38.127Z,101268.34
2022-09-26T18:25:43.649Z,101262.03
2022-09-26T18:30:53.267Z,101254.81
2022-09-26T18:41:03.800Z,101247.69
2022-09-26T18:46:09.245Z,101251.28
2022-09-26T18:51:14.881Z,101239.94
2022-09-26T18:56:18.486Z,101228.03
2022-09-26T19:01:27.632Z,101231.63
2022-09-26T19:06:37.211Z,101223.00
2022-09-26T19:11:41.022Z,101216.72
2022-09-26T19:16:45.768Z,101216.91
2022-09-26T19:21:52.481Z,101207.09
2022-09-26T19:26:58.419Z,101205.78
2022-09-26T19:32:02.675Z,101194.00
2022-09-26T19:37:11.383Z,101190.22
2022-09-26T19:42:14.988Z,101189.28
2022-09-26T19:47:20.586Z,101190.66
2022-09-26T19:52:25.825Z,101184.16
2022-09-26T19:57:29.432Z,101174.66
2022-09-26T20:02:33.761Z,101174.03
2022-09-26T20:07:38.959Z,101162.72
2022-09-26T20:12:41.761Z,101165.69
2022-09-26T20:17:46.310Z,101162.13
2022-09-26T20:22:52.179Z,101160.59
2022-09-26T20:27:55.946Z,101148.75
2022-09-26T20:32:59.733Z,101139.88
2022-09-26T20:38:08.457Z,101131.69
2022-09-26T20:43:17.732Z,101118.56
2022-09-26T20:48:23.775Z,101115.41
2022-09-26T20:53:29.062Z,101111.81
2022-09-26T20:58:32.583Z,101099.53
2022-09-26T21:03:36.124Z,101093.94
2022-09-26T21:08:43.711Z,101084.75
2022-09-26T21:13:48.991Z,101074.00
2022-09-26T21:18:53.671Z,101078.00
2022-09-26T21:24:00.220Z,101064.47
2022-09-26T21:29:06.930Z,101064.75
2022-09-26T21:34:15.467Z,101059.00
2022-09-26T21:39:20.843Z,101052.47
2022-09-26T21:44:29.870Z,101052.19
2022-09-26T21:49:33.416Z,101053.81
2022-09-26T21:54:41.664Z,101046.38
2022-09-26T21:59:46.104Z,101030.75
2022-09-26T22:04:49.662Z,101030.25
2022-09-26T22:09:54.809Z,101024.81
2022-09-26T22:14:58.353Z,101028.59
2022-09-26T22:20:02.151Z,101019.72
2022-09-26T22:25:08.284Z,101024.47
2022-09-26T22:30:13.098Z,101011.09
2022-09-26T22:35:16.758Z,101013.88
2022-09-26T22:40:22.038Z,101013.34
2022-09-26T22:45:25.605Z,101018.69
2022-09-26T22:50:29.164Z,101015.00
2022-09-26T22:55:35.242Z,101006.56
2022-09-26T23:00:39.340Z,100998.56
2022-09-26T23:05:47.019Z,100997.19
2022-09-26T23:10:53.375Z,100994.63
2022-09-26T23:15:56.969Z,100993.66
2022-09-26T23:21:00.492Z,100996.75
2022-09-26T23:26:06.980Z,100995.47
2022-09-26T23:31:11.883Z,100998.56
2022-09-26T23:36:14.858Z,100996.00
2022-09-26T23:41:20.217Z,100998.75
2022-09-26T23:46:23.828Z,100998.25
2022-09-26T23:51:27.410Z,100991.72
2022-09-26T23:56:32.626Z,100988.25
